Time;durP1;ratioP1;P1;durP2;ratioP2;P2;SDS_P1;SDS_P2;PMS_P1;PMS_P2;Temp;Humidity;BMP_temperature;BMP_pressure;BME280_temperature;BME280_humidity;BME280_pressure;Samples;Min_cycle;Max_cycle;Signal;HPM_P1;HPM_P2
2024/03/18 00:02:14;;;;;;;;;;;;;;;23.07;51.12;94293.28;5034058;28;7065;-59
2024/03/18 00:04:40;;;;;;;;;;;;;;;23.09;51.03;94301.75;5032870;28;9607;-58
2024/03/18 00:07:09;;;;;;;;;;;;;;;23.06;51.15;94297.25;5014427;28;7237;-59
2024/03/18 00:09:38;;;;;;;;;;;;;;;23.01;51.45;94292.53;5031313;28;7032;-59
2024/03/18 00:12:07;;;;;;;;;;;;;;;23.04;51.01;94300.50;5033943;28;7191;-59
2024/03/18 00:14:38;;;;;;;;;;;;;;;23.02;50.87;94294.00;5016966;28;7552;-59
2024/03/18 00:17:19;;;;;;;;;;;;;;;23.05;50.95;94301.97;5033395;28;7310;-58
2024/03/18 00:19:58;;;;;;;;;;;;;;;23.01;50.80;94296.00;5034265;28;7311;-59
2024/03/18 00:22:53;;;;;;;;;;;;;;;23.04;51.28;94299.75;5034449;28;7092;-59
2024/03/18 00:25:36;;;;;;;;;;;;;;;23.02;51.08;94294.00;4996800;28;7030;-59
2024/03/18 00:28:02;;;;;;;;;;;;;;;23.01;50.91;94295.25;4996950;28;7564;-58
2024/03/18 00:30:28;;;;;;;;;;;;;;;23.04;50.79;94305.97;5013062;28;7062;-58
2024/03/18 00:32:53;;;;;;;;;;;;;;;23.03;50.98;94301.72;5013090;28;7095;-58
2024/03/18 00:35:22;;;;;;;;;;;;;;;23.00;51.00;94291.75;5003398;28;7003;-59
2024/03/18 00:38:33;;;;;;;;;;;;;;;23.03;50.52;94298.97;5033447;28;7343;-59
2024/03/18 00:43:48;;;;;;;;;;;;;;;22.99;50.78;94281.25;4974183;28;7104;-59
2024/03/18 00:46:20;;;;;;;;;;;;;;;23.02;50.34;94281.03;4974147;28;8285;-58
2024/03/18 00:49:17;;;;;;;;;;;;;;;23.02;50.38;94280.28;4974430;28;7229;-59
2024/03/18 00:52:19;;;;;;;;;;;;;;;23.02;50.35;94278.28;4957701;28;6986;-59
2024/03/18 00:54:47;;;;;;;;;;;;;;;22.96;50.61;94271.31;4961937;28;7374;-59
2024/03/18 00:57:14;;;;;;;;;;;;;;;22.99;50.93;94271.06;4984580;28;9364;-59
2024/03/18 01:00:01;;;;;;;;;;;;;;;22.98;50.78;94268.81;4976233;28;7100;-59
2024/03/18 01:02:38;;;;;;;;;;;;;;;22.99;50.53;94271.06;4985711;28;9392;-59
2024/03/18 01:05:38;;;;;;;;;;;;;;;23.00;50.77;94256.09;4977710;28;7054;-59
2024/03/18 01:08:29;;;;;;;;;;;;;;;23.00;50.55;94261.59;4967967;28;9117;-58
2024/03/18 01:11:13;;;;;;;;;;;;;;;23.00;50.45;94258.84;4956580;28;7656;-59
2024/03/18 01:13:52;;;;;;;;;;;;;;;22.98;50.37;94250.38;4974276;28;7591;-59
2024/03/18 01:16:25;;;;;;;;;;;;;;;22.94;50.64;94251.84;4973531;28;7085;-59
2024/03/18 01:19:10;;;;;;;;;;;;;;;22.97;50.65;94248.09;5013117;28;7118;-59
2024/03/18 01:21:42;;;;;;;;;;;;;;;23.03;50.17;94255.09;5031860;28;7048;-58
2024/03/18 01:24:41;;;;;;;;;;;;;;;23.03;50.18;94248.88;5032629;28;8755;-58
2024/03/18 01:27:38;;;;;;;;;;;;;;;23.02;50.41;94234.41;5000587;28;7522;-61
2024/03/18 01:30:11;;;;;;;;;;;;;;;22.97;50.34;94234.38;5027059;28;7274;-60
2024/03/18 01:32:38;;;;;;;;;;;;;;;23.01;50.44;94238.38;4996798;28;7142;-60
2024/03/18 01:35:06;;;;;;;;;;;;;;;22.97;50.40;94229.66;4996913;28;7328;-60
2024/03/18 01:37:45;;;;;;;;;;;;;;;23.02;50.39;94230.91;5012534;28;9213;-60
2024/03/18 01:40:43;;;;;;;;;;;;;;;23.06;50.18;94229.41;5013384;28;6998;-61
2024/03/18 01:47:30;;;;;;;;;;;;;;;23.04;50.05;94223.69;5060194;28;7055;-60
2024/03/18 01:49:58;;;;;;;;;;;;;;;22.97;50.25;94217.94;5031949;28;7026;-61
2024/03/18 01:53:01;;;;;;;;;;;;;;;23.04;49.99;94212.72;5016169;28;6934;-60
2024/03/18 01:55:27;;;;;;;;;;;;;;;22.98;50.20;94214.72;5008980;28;7020;-60
2024/03/18 01:58:04;;;;;;;;;;;;;;;23.03;50.17;94213.94;5008403;28;9081;-60
2024/03/18 02:01:10;;;;;;;;;;;;;;;23.07;49.79;94214.47;5008020;28;9409;-60
2024/03/18 02:07:27;;;;;;;;;;;;;;;23.07;50.13;94202.75;5004752;28;9004;-60
2024/03/18 02:10:15;;;;;;;;;;;;;;;23.04;49.46;94199.00;5011393;28;8997;-60
2024/03/18 02:13:11;;;;;;;;;;;;;;;23.05;49.56;94205.97;4985882;28;7369;-60
2024/03/18 02:15:43;;;;;;;;;;;;;;;23.04;49.56;94201.75;5011590;28;7279;-61
2024/03/18 02:18:22;;;;;;;;;;;;;;;23.01;49.81;94196.53;4995442;28;7513;-60
2024/03/18 02:21:00;;;;;;;;;;;;;;;23.07;49.89;94205.50;5005548;28;7031;-60
2024/03/18 02:23:28;;;;;;;;;;;;;;;23.01;49.88;94186.28;5008827;28;9354;-60
2024/03/18 02:26:03;;;;;;;;;;;;;;;23.05;49.30;94180.56;5010081;28;9621;-60
2024/03/18 02:28:56;;;;;;;;;;;;;;;23.05;49.86;94186.03;5026714;28;7051;-61
2024/03/18 02:31:22;;;;;;;;;;;;;;;23.03;49.49;94180.31;5014046;28;7553;-60
2024/03/18 02:33:51;;;;;;;;;;;;;;;22.96;49.90;94178.81;5015394;28;7065;-60
2024/03/18 02:36:18;;;;;;;;;;;;;;;23.01;49.56;94178.03;5015146;28;7299;-57
2024/03/18 02:38:53;;;;;;;;;;;;;;;23.05;49.14;94175.78;5016941;28;7171;-57
2024/03/18 02:41:40;;;;;;;;;;;;;;;23.06;49.75;94180.03;5035025;28;7043;-57
2024/03/18 02:44:40;;;;;;;;;;;;;;;23.06;49.61;94179.28;5026033;28;7335;-57
2024/03/18 02:47:22;;;;;;;;;;;;;;;23.01;49.99;94169.81;5035916;28;7048;-57
2024/03/18 02:49:57;;;;;;;;;;;;;;;23.06;49.72;94176.56;5051997;28;7291;-57
2024/03/18 02:52:43;;;;;;;;;;;;;;;23.05;49.77;94173.06;5017393;28;7322;-57
2024/03/18 02:55:09;;;;;;;;;;;;;;;23.03;49.75;94167.31;5019223;28;7600;-57
2024/03/18 02:57:40;;;;;;;;;;;;;;;23.05;49.83;94170.31;5034900;28;7098;-57
2024/03/18 03:00:08;;;;;;;;;;;;;;;23.04;49.56;94171.56;5033479;28;7160;-57
2024/03/18 03:02:34;;;;;;;;;;;;;;;23.04;49.42;94157.84;5047013;28;7123;-57
2024/03/18 03:05:04;;;;;;;;;;;;;;;23.03;49.56;94153.59;5032758;28;7035;-57
2024/03/18 03:07:30;;;;;;;;;;;;;;;22.99;49.61;94147.63;5021395;28;9086;-58
2024/03/18 03:10:27;;;;;;;;;;;;;;;23.05;49.43;94148.38;5055950;28;7169;-57
2024/03/18 03:13:07;;;;;;;;;;;;;;;23.03;49.49;94147.38;5034092;28;7213;-58
2024/03/18 03:15:37;;;;;;;;;;;;;;;23.02;49.51;94146.63;5030909;28;7045;-57
2024/03/18 03:18:15;;;;;;;;;;;;;;;23.04;49.25;94140.66;5029256;28;7154;-57
2024/03/18 03:20:51;;;;;;;;;;;;;;;23.04;49.31;94135.16;5035431;28;7079;-57
2024/03/18 03:23:21;;;;;;;;;;;;;;;23.02;49.04;94132.94;5033885;28;7908;-57
2024/03/18 03:26:16;;;;;;;;;;;;;;;23.06;49.28;94133.41;5017000;28;7416;-57
2024/03/18 03:28:42;;;;;;;;;;;;;;;23.04;49.50;94133.16;4958417;28;7120;-57
2024/03/18 03:31:13;;;;;;;;;;;;;;;23.04;49.14;94130.44;4965847;28;7452;-57
2024/03/18 03:33:39;;;;;;;;;;;;;;;22.99;49.28;94117.47;4955794;28;9081;-57
2024/03/18 03:36:06;;;;;;;;;;;;;;;23.01;49.09;94125.94;4956508;28;6985;-57
2024/03/18 03:38:37;;;;;;;;;;;;;;;23.02;49.53;94134.91;4938765;28;7165;-57
2024/03/18 03:41:13;;;;;;;;;;;;;;;23.01;49.55;94130.69;4940635;28;7026;-57
2024/03/18 03:43:48;;;;;;;;;;;;;;;22.97;49.21;94121.94;4955781;28;8731;-57
2024/03/18 03:46:19;;;;;;;;;;;;;;;22.98;49.89;94121.47;4941990;28;7255;-60
2024/03/18 03:48:57;;;;;;;;;;;;;;;22.98;49.37;94126.19;4968067;28;7015;-60
2024/03/18 03:51:26;;;;;;;;;;;;;;;23.01;49.00;94119.72;4977813;28;9372;-60
2024/03/18 03:54:27;;;;;;;;;;;;;;;23.02;49.26;94127.44;4977902;28;7015;-60
2024/03/18 03:57:03;;;;;;;;;;;;;;;22.99;49.51;94117.47;4962485;28;7384;-61
2024/03/18 03:59:33;;;;;;;;;;;;;;;22.94;49.22;94110.00;4976200;28;7043;-60
2024/03/18 04:02:12;;;;;;;;;;;;;;;22.96;49.27;94113.00;4958370;28;7376;-60
2024/03/18 04:04:47;;;;;;;;;;;;;;;22.98;49.44;94110.50;4991601;28;7022;-60
2024/03/18 04:07:20;;;;;;;;;;;;;;;23.02;49.24;94121.94;5033572;28;9878;-60
2024/03/18 04:09:49;;;;;;;;;;;;;;;22.95;49.68;94097.75;5053260;28;7103;-60
2024/03/18 04:12:19;;;;;;;;;;;;;;;22.98;49.68;94096.03;5048317;28;7520;-60
2024/03/18 04:14:47;;;;;;;;;;;;;;;23.01;49.25;94101.25;5053260;28;7007;-60
2024/03/18 04:17:18;;;;;;;;;;;;;;;22.97;49.47;94089.78;5052567;28;7027;-60
2024/03/18 04:19:46;;;;;;;;;;;;;;;22.94;49.56;94099.03;5053187;28;8666;-60
2024/03/18 04:22:14;;;;;;;;;;;;;;;22.95;49.53;94091.53;5017726;28;7340;-60
2024/03/18 04:24:48;;;;;;;;;;;;;;;22.98;49.32;94094.03;5052994;28;7242;-60
2024/03/18 04:27:18;;;;;;;;;;;;;;;22.98;49.54;94090.53;5037510;28;7047;-60
2024/03/18 04:29:44;;;;;;;;;;;;;;;22.94;49.47;94084.56;5033410;28;7039;-60
2024/03/18 04:32:12;;;;;;;;;;;;;;;23.00;49.39;94091.53;5040596;28;7266;-60
2024/03/18 04:34:40;;;;;;;;;;;;;;;22.98;49.00;94077.56;5070360;28;9455;-60
2024/03/18 04:37:22;;;;;;;;;;;;;;;22.94;49.03;94068.84;5055311;28;7005;-60
2024/03/18 04:40:06;;;;;;;;;;;;;;;22.96;49.21;94074.59;5054331;28;9885;-60
2024/03/18 04:42:44;;;;;;;;;;;;;;;22.93;49.29;94061.88;5054676;28;7052;-60
2024/03/18 04:45:22;;;;;;;;;;;;;;;22.92;49.51;94062.38;5054497;28;6938;-60
2024/03/18 04:47:54;;;;;;;;;;;;;;;22.98;49.37;94069.34;5054625;28;7263;-60
2024/03/18 04:50:30;;;;;;;;;;;;;;;22.88;49.34;94057.13;5070327;28;7021;-60
2024/03/18 04:53:29;;;;;;;;;;;;;;;22.91;49.20;94060.88;5050967;28;7102;-60
2024/03/18 04:56:04;;;;;;;;;;;;;;;22.92;49.28;94051.41;5004142;28;7001;-57
2024/03/18 04:58:30;;;;;;;;;;;;;;;22.97;49.45;94054.13;5033587;28;8848;-57
2024/03/18 05:00:56;;;;;;;;;;;;;;;22.96;49.53;94049.91;5052119;28;7300;-57
2024/03/18 05:03:45;;;;;;;;;;;;;;;22.93;49.19;94036.44;5029706;28;7274;-57
2024/03/18 05:06:16;;;;;;;;;;;;;;;22.97;49.45;94048.66;5016481;28;7031;-57
2024/03/18 05:09:31;;;;;;;;;;;;;;;22.98;49.17;94047.41;5002255;28;7104;-57
2024/03/18 05:12:59;;;;;;;;;;;;;;;22.98;49.35;94038.44;5033096;28;7111;-57
2024/03/18 05:15:28;;;;;;;;;;;;;;;22.90;49.47;94024.47;5013056;28;7288;-57
2024/03/18 05:17:57;;;;;;;;;;;;;;;22.97;49.37;94031.44;5019475;28;7232;-57
2024/03/18 05:20:48;;;;;;;;;;;;;;;22.97;49.37;94023.22;5032448;28;7257;-57
2024/03/18 05:23:44;;;;;;;;;;;;;;;22.96;49.05;94030.72;5015150;28;7675;-57
2024/03/18 05:26:26;;;;;;;;;;;;;;;22.92;49.08;94018.50;4972523;28;7114;-57
2024/03/18 05:28:52;;;;;;;;;;;;;;;22.94;49.30;94037.94;4976671;28;7035;-57
2024/03/18 05:31:20;;;;;;;;;;;;;;;22.91;49.54;94023.22;5012763;28;7128;-56
2024/03/18 05:33:48;;;;;;;;;;;;;;;22.98;49.30;94030.19;5029025;28;7015;-58
2024/03/18 05:36:18;;;;;;;;;;;;;;;23.01;49.38;94026.47;5015405;28;7891;-58
2024/03/18 05:38:55;;;;;;;;;;;;;;;23.13;50.71;94030.66;5036579;28;6995;-58
2024/03/18 05:41:42;;;;;;;;;;;;;;;23.17;51.61;94018.19;5013247;28;6895;-59
2024/03/18 05:44:20;;;;;;;;;;;;;;;23.29;51.03;94016.16;5015315;28;7275;-57
2024/03/18 05:46:50;;;;;;;;;;;;;;;23.32;50.68;94022.59;5028821;28;9106;-57
2024/03/18 05:49:17;;;;;;;;;;;;;;;23.23;50.95;94020.91;5023497;28;9405;-57
2024/03/18 05:51:47;;;;;;;;;;;;;;;23.27;50.18;94024.88;5020892;28;9177;-59
2024/03/18 05:54:43;;;;;;;;;;;;;;;23.24;49.62;94028.63;5039370;28;6999;-59
2024/03/18 05:57:57;;;;;;;;;;;;;;;23.19;49.61;94025.91;4927861;29;7786;-58
2024/03/18 06:00:43;;;;;;;;;;;;;;;23.15;49.61;94020.69;4928957;28;7006;-59
2024/03/18 06:03:30;;;;;;;;;;;;;;;23.13;49.88;94017.69;4957039;28;7264;-59
2024/03/18 06:06:15;;;;;;;;;;;;;;;23.19;51.47;94021.16;4972980;28;7033;-58
2024/03/18 06:09:03;;;;;;;;;;;;;;;23.30;52.33;94025.13;4957907;28;7678;-58
2024/03/18 06:11:45;;;;;;;;;;;;;;;23.52;66.30;94038.78;4957850;28;8880;-59
2024/03/18 06:14:45;;;;;;;;;;;;;;;24.08;70.81;94042.03;4972439;28;9042;-58
2024/03/18 06:17:21;;;;;;;;;;;;;;;24.49;70.59;94035.22;4972180;28;7339;-59
2024/03/18 06:20:11;;;;;;;;;;;;;;;24.90;68.17;94043.44;4975349;28;9493;-59
2024/03/18 06:23:08;;;;;;;;;;;;;;;25.05;50.31;94040.28;4956224;28;7014;-60
2024/03/18 06:25:59;;;;;;;;;;;;;;;24.97;44.19;94047.63;4980554;28;7046;-59
2024/03/18 06:28:37;;;;;;;;;;;;;;;24.56;50.09;94020.94;4979841;28;7134;-60
2024/03/18 06:31:03;;;;;;;;;;;;;;;24.15;49.34;94036.75;4956167;28;7229;-60
2024/03/18 06:33:29;;;;;;;;;;;;;;;23.81;48.75;94030.69;5008650;28;7085;-59
2024/03/18 06:35:57;;;;;;;;;;;;;;;23.61;48.52;94033.00;5035005;28;7014;-57
2024/03/18 06:38:57;;;;;;;;;;;;;;;23.44;48.78;94024.84;5042995;28;9190;-58
2024/03/18 06:41:42;;;;;;;;;;;;;;;23.27;48.90;94011.16;5042558;28;9428;-59
2024/03/18 06:44:33;;;;;;;;;;;;;;;23.24;49.47;94016.91;5015207;28;6871;-58
2024/03/18 06:47:26;;;;;;;;;;;;;;;23.18;49.06;94016.91;5051510;28;7122;-58
2024/03/18 06:50:00;;;;;;;;;;;;;;;23.12;48.10;94013.44;5050046;28;7680;-57
2024/03/18 06:52:37;;;;;;;;;;;;;;;23.03;47.77;94010.97;5034346;28;7113;-57
2024/03/18 06:55:13;;;;;;;;;;;;;;;22.97;49.09;93999.28;5051351;28;7368;-57
2024/03/18 06:57:41;;;;;;;;;;;;;;;23.02;49.26;94000.50;5051385;28;7039;-57
2024/03/18 07:00:54;;;;;;;;;;;;;;;23.04;49.99;94004.25;5049551;28;7041;-58
2024/03/18 07:03:32;;;;;;;;;;;;;;;23.05;49.93;94000.25;4990053;28;7638;-57
2024/03/18 07:06:36;;;;;;;;;;;;;;;23.02;50.32;94001.28;4968029;28;7295;-59
2024/03/18 07:09:06;;;;;;;;;;;;;;;22.98;50.21;94003.53;5001556;28;7978;-59
2024/03/18 07:11:31;;;;;;;;;;;;;;;22.97;50.06;93996.53;5001258;28;7117;-58
2024/03/18 07:14:00;;;;;;;;;;;;;;;23.02;50.26;94001.28;4991887;28;7000;-59
2024/03/18 07:16:25;;;;;;;;;;;;;;;23.06;50.18;94001.75;4985586;28;6951;-59
2024/03/18 07:19:11;;;;;;;;;;;;;;;23.04;50.39;93998.78;5011732;28;6968;-59
2024/03/18 07:21:38;;;;;;;;;;;;;;;23.08;50.11;93988.28;5011553;28;7023;-59
2024/03/18 07:24:06;;;;;;;;;;;;;;;23.10;50.33;93985.78;5003557;28;7284;-58
2024/03/18 07:26:34;;;;;;;;;;;;;;;23.12;50.07;93983.28;4986837;28;9463;-59
2024/03/18 07:29:09;;;;;;;;;;;;;;;23.10;50.35;93987.75;4990591;28;7378;-59
2024/03/18 07:31:37;;;;;;;;;;;;;;;23.10;49.89;93985.78;5007482;28;8161;-59
2024/03/18 07:34:05;;;;;;;;;;;;;;;23.18;50.22;93986.75;5014821;28;7287;-59
2024/03/18 07:36:53;;;;;;;;;;;;;;;23.13;50.21;93984.78;5014287;28;7125;-58
2024/03/18 07:39:51;;;;;;;;;;;;;;;23.18;50.28;93986.75;5010909;28;7369;-59
2024/03/18 07:42:35;;;;;;;;;;;;;;;23.13;50.34;93979.28;5001392;28;7092;-59
2024/03/18 07:45:25;;;;;;;;;;;;;;;23.18;49.86;93986.75;4995198;28;7228;-59
2024/03/18 07:47:52;;;;;;;;;;;;;;;23.13;49.98;93978.53;4982268;28;7141;-59
2024/03/18 07:50:20;;;;;;;;;;;;;;;23.17;49.98;93990.75;4994797;28;7310;-57
2024/03/18 07:52:46;;;;;;;;;;;;;;;23.19;50.46;93988.25;4994548;28;8838;-59
2024/03/18 07:55:37;;;;;;;;;;;;;;;23.18;50.14;93975.75;4994751;28;6997;-59
2024/03/18 07:58:17;;;;;;;;;;;;;;;23.12;50.27;93966.81;4978193;28;7322;-59
2024/03/18 08:00:52;;;;;;;;;;;;;;;23.19;50.50;93976.53;4994083;28;7294;-58
2024/03/18 08:03:29;;;;;;;;;;;;;;;23.16;49.99;93972.06;4994646;28;7070;-59
2024/03/18 08:06:27;;;;;;;;;;;;;;;23.18;50.28;93964.78;4978443;28;7801;-59
2024/03/18 08:09:16;;;;;;;;;;;;;;;23.19;50.58;93976.53;4994311;28;6970;-59
2024/03/18 08:11:47;;;;;;;;;;;;;;;23.20;50.47;93975.28;4994171;28;7389;-59
2024/03/18 08:14:24;;;;;;;;;;;;;;;23.19;50.28;93977.28;4994223;28;7034;-59
2024/03/18 08:17:04;;;;;;;;;;;;;;;23.14;50.31;93967.06;4980040;28;7443;-58
2024/03/18 08:20:01;;;;;;;;;;;;;;;23.22;50.46;93983.75;5070113;28;8467;-59
2024/03/18 08:22:32;;;;;;;;;;;;;;;23.16;50.19;93981.00;5056608;28;6981;-59
2024/03/18 08:25:13;;;;;;;;;;;;;;;23.19;50.65;93984.75;5070407;28;9144;-59
2024/03/18 08:27:53;;;;;;;;;;;;;;;23.21;50.21;93982.25;5060979;28;7139;-59
2024/03/18 08:30:30;;;;;;;;;;;;;;;23.15;50.20;93979.53;5053426;28;7225;-60
2024/03/18 08:32:56;;;;;;;;;;;;;;;23.17;50.43;93984.50;5075358;28;8546;-59
2024/03/18 08:35:22;;;;;;;;;;;;;;;23.20;50.23;93989.75;5058664;28;7022;-59
2024/03/18 08:37:57;;;;;;;;;;;;;;;23.19;50.62;93987.50;5056178;28;7380;-59
2024/03/18 08:40:32;;;;;;;;;;;;;;;23.14;50.18;93986.25;5072275;28;7129;-59
2024/03/18 08:43:08;;;;;;;;;;;;;;;23.15;50.41;93987.75;5064963;28;9136;-59
2024/03/18 08:45:49;;;;;;;;;;;;;;;23.19;50.33;93992.97;5056673;28;7024;-60
2024/03/18 08:48:49;;;;;;;;;;;;;;;23.21;50.31;93998.69;5047043;28;8804;-60
2024/03/18 08:51:15;;;;;;;;;;;;;;;23.14;50.23;93986.25;5070565;28;7185;-60
2024/03/18 08:53:43;;;;;;;;;;;;;;;23.21;50.49;93999.47;5058847;28;7313;-59
2024/03/18 08:56:27;;;;;;;;;;;;;;;23.18;50.58;94005.22;5054454;28;9072;-60
2024/03/18 08:59:38;;;;;;;;;;;;;;;23.24;49.89;94012.19;5037723;28;7016;-61
2024/03/18 09:02:04;;;;;;;;;;;;;;;23.27;50.70;94006.94;5058188;28;8259;-60
2024/03/18 09:04:30;;;;;;;;;;;;;;;23.30;50.50;94009.41;5051836;28;7231;-61
2024/03/18 09:06:56;;;;;;;;;;;;;;;23.30;50.20;94008.66;5052411;28;7033;-60
2024/03/18 09:09:22;;;;;;;;;;;;;;;23.43;49.93;94017.88;5048697;28;7787;-61
2024/03/18 09:11:54;;;;;;;;;;;;;;;23.45;50.21;94009.13;5065851;28;8631;-60
2024/03/18 09:14:25;;;;;;;;;;;;;;;23.47;49.90;94012.84;5070579;28;9477;-61
2024/03/18 09:16:57;;;;;;;;;;;;;;;23.50;49.77;94020.09;5052800;28;9426;-60
2024/03/18 09:19:24;;;;;;;;;;;;;;;23.48;49.85;94011.63;5054682;28;8703;-61
2024/03/18 09:21:55;;;;;;;;;;;;;;;23.51;49.76;94007.84;5050566;28;9373;-61
2024/03/18 09:24:35;;;;;;;;;;;;;;;23.55;49.80;94024.06;5060862;28;9443;-61
2024/03/18 09:27:06;;;;;;;;;;;;;;;23.50;49.21;94016.59;5053148;28;9119;-72
2024/03/18 09:29:34;;;;;;;;;;;;;;;23.58;49.33;94031.28;5068565;28;8872;-72
2024/03/18 09:32:00;;;;;;;;;;;;;;;23.59;49.61;94039.03;5050130;28;9168;-71
2024/03/18 09:34:29;;;;;;;;;;;;;;;23.62;49.71;94040.00;5053227;28;9059;-72
2024/03/18 09:37:30;;;;;;;;;;;;;;;23.64;49.30;94037.50;5053256;28;7231;-71
2024/03/18 09:39:57;;;;;;;;;;;;;;;23.65;49.07;94041.72;5053508;28;9361;-71
2024/03/18 09:42:23;;;;;;;;;;;;;;;23.66;49.21;94043.97;5068741;28;8605;-72
2024/03/18 09:45:23;;;;;;;;;;;;;;;23.68;49.79;94054.47;5053219;28;8988;-74
2024/03/18 09:48:04;;;;;;;;;;;;;;;23.68;49.22;94049.72;5007925;28;9442;-73
2024/03/18 09:50:50;;;;;;;;;;;;;;;23.69;49.13;94053.19;5007630;28;9353;-73
2024/03/18 09:53:47;;;;;;;;;;;;;;;23.69;49.54;94053.19;5025456;28;10159;-73
2024/03/18 09:56:27;;;;;;;;;;;;;;;23.69;49.75;94062.19;5033337;28;7424;-73
2024/03/18 09:59:38;;;;;;;;;;;;;;;23.70;49.20;94065.69;5032028;28;8791;-71
2024/03/18 10:02:38;;;;;;;;;;;;;;;23.70;48.95;94068.41;5015506;28;8692;-72
2024/03/18 10:05:23;;;;;;;;;;;;;;;23.67;49.30;94064.69;4992912;28;9062;-72
2024/03/18 10:07:58;;;;;;;;;;;;;;;23.66;49.48;94065.19;4973277;28;9367;-73
2024/03/18 10:10:46;;;;;;;;;;;;;;;23.70;49.57;94068.41;4976214;28;9577;-71
2024/03/18 10:13:25;;;;;;;;;;;;;;;23.70;49.22;94084.91;4976311;28;9162;-71
2024/03/18 10:15:53;;;;;;;;;;;;;;;23.70;49.21;94084.91;4975735;28;9187;-71
2024/03/18 10:18:36;;;;;;;;;;;;;;;23.69;49.28;94086.88;4971999;28;9203;-72
2024/03/18 10:21:38;;;;;;;;;;;;;;;23.71;49.03;94089.88;4976293;28;9004;-72
2024/03/18 10:24:17;;;;;;;;;;;;;;;23.71;49.25;94091.88;4991505;28;8864;-72
2024/03/18 10:26:46;;;;;;;;;;;;;;;23.69;49.54;94089.63;5013279;28;8948;-72
2024/03/18 10:29:40;;;;;;;;;;;;;;;23.70;50.06;94090.38;5017439;28;9438;-72
2024/03/18 10:32:35;;;;;;;;;;;;;;;23.67;49.10;94096.88;4972188;28;8823;-73
2024/03/18 10:35:02;;;;;;;;;;;;;;;23.73;48.08;94103.84;4956632;28;9106;-73
2024/03/18 10:37:28;;;;;;;;;;;;;;;23.80;47.44;94110.81;4952270;28;9142;-65
2024/03/18 10:44:03;;;;;;;;;;;;;;;23.98;48.51;94113.75;4932465;29;7203;-61
2024/03/18 10:46:47;;;;;;;;;;;;;;;24.04;48.24;94112.94;4918828;29;8924;-62
2024/03/18 10:49:19;;;;;;;;;;;;;;;24.08;48.08;94121.69;4935185;29;9107;-62
2024/03/18 10:52:35;;;;;;;;;;;;;;;24.12;47.99;94119.44;4940664;29;9298;-62
2024/03/18 10:58:46;;;;;;;;;;;;;;;24.29;47.82;94150.34;4969655;28;9026;-62
2024/03/18 11:01:28;;;;;;;;;;;;;;;24.35;47.81;94151.81;4969025;28;9349;-62
2024/03/18 11:03:54;;;;;;;;;;;;;;;24.40;47.42;94153.75;4960559;28;9198;-63
2024/03/18 11:06:58;;;;;;;;;;;;;;;24.46;46.96;94157.25;4976564;28;8759;-62
2024/03/18 11:09:39;;;;;;;;;;;;;;;24.51;47.32;94158.47;5020068;28;8620;-62
2024/03/18 11:15:55;;;;;;;;;;;;;;;24.57;46.85;94168.19;5054754;28;8720;-61
2024/03/18 11:18:27;;;;;;;;;;;;;;;24.58;47.15;94166.16;5031666;28;8932;-61
2024/03/18 11:21:03;;;;;;;;;;;;;;;24.61;46.88;94173.38;5038052;28;8695;-61
2024/03/18 11:23:34;;;;;;;;;;;;;;;24.64;47.12;94173.09;5033187;28;8807;-61
2024/03/18 11:26:08;;;;;;;;;;;;;;;24.67;46.76;94177.59;5031253;28;9293;-61
2024/03/18 11:28:42;;;;;;;;;;;;;;;24.70;46.64;94175.84;5033956;28;8747;-61
2024/03/18 11:31:11;;;;;;;;;;;;;;;24.66;46.68;94173.34;5051379;28;9026;-62
2024/03/18 11:33:39;;;;;;;;;;;;;;;24.71;47.11;94183.56;5053835;28;9264;-62
2024/03/18 11:36:35;;;;;;;;;;;;;;;24.72;46.22;94173.31;5066868;28;9356;-61
2024/03/18 11:39:02;;;;;;;;;;;;;;;24.73;46.40;94176.81;5054453;28;9367;-61
2024/03/18 11:41:35;;;;;;;;;;;;;;;24.70;46.82;94173.84;5055512;28;8759;-62
2024/03/18 11:44:40;;;;;;;;;;;;;;;24.73;47.22;94178.31;5059674;28;9181;-62
2024/03/18 11:47:08;;;;;;;;;;;;;;;24.73;47.42;94175.56;5070325;28;8886;-70
2024/03/18 11:49:35;;;;;;;;;;;;;;;24.73;47.03;94180.31;5052326;28;9506;-71
2024/03/18 11:52:17;;;;;;;;;;;;;;;24.71;47.70;94180.06;5058750;28;8996;-71
2024/03/18 11:54:49;;;;;;;;;;;;;;;24.75;47.06;94188.09;5055085;28;9390;-72
2024/03/18 11:57:16;;;;;;;;;;;;;;;24.70;47.16;94181.34;5054776;28;9035;-71
2024/03/18 12:00:15;;;;;;;;;;;;;;;24.75;46.39;94191.56;5062232;28;9385;-71
2024/03/18 12:02:48;;;;;;;;;;;;;;;24.75;46.75;94197.06;5054860;28;7148;-71
2024/03/18 12:05:14;;;;;;;;;;;;;;;24.75;46.50;94191.56;5054258;28;9409;-64
2024/03/18 12:07:43;;;;;;;;;;;;;;;24.73;46.92;94189.31;5053043;28;8910;-63
2024/03/18 12:10:15;;;;;;;;;;;;;;;24.73;46.87;94176.81;5051612;28;8697;-64
2024/03/18 12:12:44;;;;;;;;;;;;;;;24.77;46.72;94180.06;5067035;28;8674;-64
2024/03/18 12:15:17;;;;;;;;;;;;;;;24.73;46.81;94176.81;5035970;28;8730;-64
2024/03/18 12:17:54;;;;;;;;;;;;;;;24.78;47.18;94184.31;5055666;28;7024;-64
2024/03/18 12:20:28;;;;;;;;;;;;;;;24.78;47.09;94192.56;5067933;28;9252;-64
2024/03/18 12:23:02;;;;;;;;;;;;;;;24.78;46.44;94185.06;5054876;28;6991;-63
2024/03/18 12:28:32;;;;;;;;;;;;;;;24.79;46.41;94192.06;5052109;28;9439;-64
2024/03/18 12:30:59;;;;;;;;;;;;;;;24.80;47.12;94187.28;5053839;28;7264;-64
2024/03/18 12:33:32;;;;;;;;;;;;;;;24.78;47.03;94187.06;5067536;28;8260;-64
2024/03/18 12:36:03;;;;;;;;;;;;;;;24.77;46.44;94182.81;5050742;28;9168;-65
2024/03/18 12:38:40;;;;;;;;;;;;;;;24.77;46.83;94183.59;5053006;28;6939;-64
2024/03/18 12:41:16;;;;;;;;;;;;;;;24.84;46.63;94183.00;5070367;28;9044;-64
2024/03/18 12:43:43;;;;;;;;;;;;;;;24.87;46.58;94178.50;5048502;28;7067;-64
2024/03/18 12:46:14;;;;;;;;;;;;;;;24.90;46.83;94186.50;5052947;28;7265;-64
2024/03/18 12:48:41;;;;;;;;;;;;;;;24.87;46.66;94182.00;5059825;28;9119;-65
2024/03/18 12:51:20;;;;;;;;;;;;;;;24.93;47.13;94195.69;5058103;28;9401;-64
2024/03/18 12:53:50;;;;;;;;;;;;;;;24.94;45.86;94192.47;5045044;28;8261;-64
2024/03/18 12:56:19;;;;;;;;;;;;;;;24.92;46.71;94188.72;5053107;28;8695;-61
2024/03/18 12:58:45;;;;;;;;;;;;;;;24.98;46.55;94192.19;5050621;28;8690;-61
2024/03/18 13:01:17;;;;;;;;;;;;;;;25.00;46.54;94197.91;5053171;28;9408;-61
2024/03/18 13:03:51;;;;;;;;;;;;;;;25.01;46.83;94199.41;5052077;28;9013;-61
2024/03/18 13:06:21;;;;;;;;;;;;;;;25.03;46.82;94199.66;5068296;28;9027;-60
2024/03/18 13:08:51;;;;;;;;;;;;;;;25.02;46.11;94198.91;5053100;28;9718;-60
2024/03/18 13:11:22;;;;;;;;;;;;;;;25.02;46.66;94207.16;5051785;28;9733;-60
2024/03/18 13:13:50;;;;;;;;;;;;;;;24.98;46.44;94198.44;5064847;28;8676;-60
2024/03/18 13:16:18;;;;;;;;;;;;;;;25.02;46.14;94207.16;5053129;28;9135;-60
2024/03/18 13:18:46;;;;;;;;;;;;;;;25.02;46.33;94206.41;5053714;28;7224;-61
2024/03/18 13:21:21;;;;;;;;;;;;;;;25.02;46.94;94209.16;5052248;28;9667;-60
2024/03/18 13:24:27;;;;;;;;;;;;;;;25.01;46.83;94204.91;5049650;28;7350;-60
2024/03/18 13:27:08;;;;;;;;;;;;;;;24.99;46.14;94204.69;4977493;28;9034;-61
2024/03/18 13:29:58;;;;;;;;;;;;;;;24.97;46.69;94207.22;4992995;28;8787;-61
2024/03/18 13:32:26;;;;;;;;;;;;;;;24.93;46.74;94212.97;4975886;28;7310;-61
2024/03/18 13:34:55;;;;;;;;;;;;;;;24.85;46.64;94201.03;4992837;28;9788;-61
2024/03/18 13:37:36;;;;;;;;;;;;;;;24.78;46.95;94206.31;4976707;28;9220;-61
2024/03/18 13:40:23;;;;;;;;;;;;;;;24.68;46.59;94200.34;4976123;28;7349;-61
2024/03/18 13:42:58;;;;;;;;;;;;;;;24.55;47.66;94200.94;4972445;28;9502;-61
2024/03/18 13:45:48;;;;;;;;;;;;;;;24.48;47.05;94198.72;4973248;28;7215;-61
2024/03/18 13:48:51;;;;;;;;;;;;;;;24.38;47.78;94202.28;4974826;28;8694;-61
2024/03/18 13:51:39;;;;;;;;;;;;;;;24.27;47.90;94192.03;4949766;28;9589;-61
2024/03/18 13:54:34;;;;;;;;;;;;;;;24.18;47.86;94197.09;4944068;28;9462;-61
2024/03/18 13:57:15;;;;;;;;;;;;;;;24.09;48.17;94208.38;4900082;29;9188;-61
2024/03/18 13:59:43;;;;;;;;;;;;;;;24.02;48.73;94201.38;4897441;28;8815;-61
2024/03/18 14:02:20;;;;;;;;;;;;;;;23.92;48.59;94202.91;4967212;28;9397;-61
2024/03/18 14:05:04;;;;;;;;;;;;;;;23.89;48.95;94201.16;4975016;28;8930;-61
2024/03/18 14:07:30;;;;;;;;;;;;;;;23.82;49.28;94207.16;4976166;28;8676;-61
2024/03/18 14:09:59;;;;;;;;;;;;;;;23.77;49.01;94205.19;4975803;28;9374;-60
2024/03/18 14:12:26;;;;;;;;;;;;;;;23.76;49.30;94203.69;4990092;28;7379;-61
2024/03/18 14:15:06;;;;;;;;;;;;;;;23.71;49.58;94207.94;4989480;28;9098;-60
2024/03/18 14:17:44;;;;;;;;;;;;;;;23.69;49.07;94217.94;4974796;28;8805;-61
2024/03/18 14:20:30;;;;;;;;;;;;;;;23.66;49.50;94216.22;4958310;28;9175;-61